Airfield :
LOGIN :

Register | Disclaimer

   EN    FR    IT 

 










Legend :    VFR   Marginal VFR   IFR   Intensive IFR   Very Intensive IFR
Visi :
Ceiling :
>= 8 km
>= 3000ft
5 to 8 km
1000 to 3000 ft
1500m to 5 km
500 to 1000 ft
800 to 1500m
200 to 500 ft
< 800m
< 200 ft
Symbols :   Thunderstorms  Fog  Heavy snow  Heavy precipitations  Wind > 20 kt
SIGMETs :     Misc.  Thunderstorms  Icing  Turbulence  Mountain Waves  Volcanic Ashes






- Airport Elevation : 1017 ft


LFSL - Brive Souillac

CURRENT METAR :
  • 112030Z AUTO 28012KT 9999 SCT013/// BKN035/// BKN090/// ///CB 06/04 Q1014 TEMPO 4000 -RADZ BKN003 BECMG 22005KT

EXPIRED METARs :
  • 112000Z AUTO 25008KT 200V300 9999 BKN011/// BKN070/// OVC094/// ///TCU 06/05 Q1013 TEMPO 27015G25KT 3000 SHRA BKN005 SCT020CB
  • 111930Z AUTO 25011G22KT 210V280 9999 BKN013/// OVC098/// ///CB 06/05 Q1013 TEMPO 3000 SHRA BKN005 SCT020CB
  • 111900Z AUTO 23008KT 190V290 8000 -RA SCT009/// BKN013/// BKN018/// ///CB 06/06 Q1013 TEMPO 27015G25KT 3000 SHRA BKN005 SCT020CB
  • 111830Z AUTO 21006KT 170V250 9999 BKN008/// BKN015/// BKN022/// ///TCU 06/06 Q1013 TEMPO 27015G25KT 3000 SHRA BKN005 SCT020CB
  • 111800Z AUTO 19005KT 140V260 9999 FEW008/// BKN025/// OVC033/// ///TCU 06/06 Q1014 TEMPO 27015G25KT 3000 SHRA BKN005 SCT020CB

TAF TAF LFSL
Valid from the 11 at 18:00 until the 12 at 03:00 UTC


111700Z 1118/1203 22005KT 9999 FEW007 SCT025 BKN035
TEMPO 1118/1122 27015G25KT 3000 SHRA BKN005 SCT020CB
PROB40
TEMPO 1122/1203 4000 -RADZ BKN003



MET'MAP, your aeronautical weather chart ! - Copyright ORBIFLY December 2007 - Disclaimer

ORBIFLY MET'MAP TEAM :

Programming & Development : Alexandra Zaïnal
Concept & original design : Baudouin d'Aumeries
Assistance for programming : Marc-Olivier Méhu
Technical & hardware support : Manuel Goepfert

Contact : metmap@orbifly.com




SOURCES & CREDITS :

   NOAA